sensor_id;sensor_type;location;lat;lon;timestamp;temperature;humidity
316;DHT22;14128;48.686;9.738;2023-09-19T00:00:42;17.00;1.40
316;DHT22;14128;48.686;9.738;2023-09-19T00:03:10;17.10;1.40
316;DHT22;14128;48.686;9.738;2023-09-19T00:05:39;17.10;1.40
316;DHT22;14128;48.686;9.738;2023-09-19T00:08:10;17.20;1.40
316;DHT22;14128;48.686;9.738;2023-09-19T00:10:39;17.20;1.40
316;DHT22;14128;48.686;9.738;2023-09-19T00:13:07;17.00;1.40
316;DHT22;14128;48.686;9.738;2023-09-19T00:15:37;17.10;1.40
316;DHT22;14128;48.686;9.738;2023-09-19T00:18:04;17.10;1.40
316;DHT22;14128;48.686;9.738;2023-09-19T00:20:32;17.00;1.40
316;DHT22;14128;48.686;9.738;2023-09-19T00:23:02;17.00;1.40
316;DHT22;14128;48.686;9.738;2023-09-19T00:25:34;16.90;1.40
316;DHT22;14128;48.686;9.738;2023-09-19T00:28:02;16.80;1.40
316;DHT22;14128;48.686;9.738;2023-09-19T00:30:30;16.80;1.40
316;DHT22;14128;48.686;9.738;2023-09-19T00:32:57;16.80;1.40
316;DHT22;14128;48.686;9.738;2023-09-19T00:35:23;16.80;1.40
316;DHT22;14128;48.686;9.738;2023-09-19T00:37:51;16.70;1.40
316;DHT22;14128;48.686;9.738;2023-09-19T00:40:19;16.60;1.40
316;DHT22;14128;48.686;9.738;2023-09-19T00:42:48;16.50;1.40
316;DHT22;14128;48.686;9.738;2023-09-19T00:45:16;16.50;1.40
316;DHT22;14128;48.686;9.738;2023-09-19T00:47:45;16.50;1.40
316;DHT22;14128;48.686;9.738;2023-09-19T00:50:15;16.40;1.40
316;DHT22;14128;48.686;9.738;2023-09-19T00:52:43;16.30;1.40
316;DHT22;14128;48.686;9.738;2023-09-19T00:55:11;16.30;1.40
316;DHT22;14128;48.686;9.738;2023-09-19T00:57:40;16.30;1.40
316;DHT22;14128;48.686;9.738;2023-09-19T01:00:09;16.40;1.40
316;DHT22;14128;48.686;9.738;2023-09-19T01:02:41;16.40;1.40
316;DHT22;14128;48.686;9.738;2023-09-19T01:05:08;16.30;1.40
316;DHT22;14128;48.686;9.738;2023-09-19T01:07:36;16.30;1.40
316;DHT22;14128;48.686;9.738;2023-09-19T01:10:06;16.30;1.40
316;DHT22;14128;48.686;9.738;2023-09-19T01:12:53;16.30;1.40
316;DHT22;14128;48.686;9.738;2023-09-19T01:15:28;16.20;1.40
316;DHT22;14128;48.686;9.738;2023-09-19T01:18:03;16.20;1.40
316;DHT22;14128;48.686;9.738;2023-09-19T01:20:40;16.20;1.40
316;DHT22;14128;48.686;9.738;2023-09-19T01:23:16;16.30;1.40
316;DHT22;14128;48.686;9.738;2023-09-19T01:26:06;16.20;1.40
316;DHT22;14128;48.686;9.738;2023-09-19T01:28:45;16.30;1.40
316;DHT22;14128;48.686;9.738;2023-09-19T01:31:21;16.20;1.40
316;DHT22;14128;48.686;9.738;2023-09-19T01:33:57;16.20;1.40
316;DHT22;14128;48.686;9.738;2023-09-19T01:36:25;16.20;1.40
316;DHT22;14128;48.686;9.738;2023-09-19T01:38:53;16.20;1.40
316;DHT22;14128;48.686;9.738;2023-09-19T01:41:26;16.20;1.40
316;DHT22;14128;48.686;9.738;2023-09-19T01:43:57;16.10;1.40
316;DHT22;14128;48.686;9.738;2023-09-19T01:46:32;16.10;1.40
316;DHT22;14128;48.686;9.738;2023-09-19T01:49:10;16.10;1.40
316;DHT22;14128;48.686;9.738;2023-09-19T01:51:45;16.00;1.40
316;DHT22;14128;48.686;9.738;2023-09-19T01:54:17;16.00;1.40
316;DHT22;14128;48.686;9.738;2023-09-19T01:56:49;16.00;1.40
316;DHT22;14128;48.686;9.738;2023-09-19T01:59:23;16.00;1.40
316;DHT22;14128;48.686;9.738;2023-09-19T02:01:54;16.00;1.40
316;DHT22;14128;48.686;9.738;2023-09-19T02:04:22;16.00;1.40
316;DHT22;14128;48.686;9.738;2023-09-19T02:06:48;16.00;1.40
316;DHT22;14128;48.686;9.738;2023-09-19T02:09:17;16.00;1.40
316;DHT22;14128;48.686;9.738;2023-09-19T02:11:44;16.00;1.40
316;DHT22;14128;48.686;9.738;2023-09-19T02:14:12;16.00;1.40
316;DHT22;14128;48.686;9.738;2023-09-19T02:16:39;16.00;1.40
316;DHT22;14128;48.686;9.738;2023-09-19T02:19:08;16.00;1.40
316;DHT22;14128;48.686;9.738;2023-09-19T02:21:35;16.00;1.40
316;DHT22;14128;48.686;9.738;2023-09-19T02:24:01;16.10;1.40
316;DHT22;14128;48.686;9.738;2023-09-19T02:26:29;16.10;1.40
316;DHT22;14128;48.686;9.738;2023-09-19T02:28:56;16.00;1.40
316;DHT22;14128;48.686;9.738;2023-09-19T02:31:23;16.00;1.40
316;DHT22;14128;48.686;9.738;2023-09-19T02:33:50;16.00;1.40
316;DHT22;14128;48.686;9.738;2023-09-19T02:36:18;16.00;1.40
316;DHT22;14128;48.686;9.738;2023-09-19T02:38:45;16.00;1.40
316;DHT22;14128;48.686;9.738;2023-09-19T02:41:12;15.90;1.40
316;DHT22;14128;48.686;9.738;2023-09-19T02:43:39;15.90;1.40
316;DHT22;14128;48.686;9.738;2023-09-19T02:46:06;15.90;1.40
316;DHT22;14128;48.686;9.738;2023-09-19T02:48:33;15.90;1.40
316;DHT22;14128;48.686;9.738;2023-09-19T02:51:01;15.90;1.40
316;DHT22;14128;48.686;9.738;2023-09-19T02:53:30;15.90;1.40
316;DHT22;14128;48.686;9.738;2023-09-19T02:55:57;15.80;1.40
316;DHT22;14128;48.686;9.738;2023-09-19T02:58:24;15.60;1.40
316;DHT22;14128;48.686;9.738;2023-09-19T03:00:53;15.30;1.40
316;DHT22;14128;48.686;9.738;2023-09-19T03:03:20;15.10;1.40
316;DHT22;14128;48.686;9.738;2023-09-19T03:05:48;15.00;1.40
316;DHT22;14128;48.686;9.738;2023-09-19T03:08:17;14.90;1.40
316;DHT22;14128;48.686;9.738;2023-09-19T03:10:47;14.80;1.40
316;DHT22;14128;48.686;9.738;2023-09-19T03:13:14;14.70;1.40
316;DHT22;14128;48.686;9.738;2023-09-19T03:15:41;14.70;1.40
316;DHT22;14128;48.686;9.738;2023-09-19T03:18:09;14.70;1.40
316;DHT22;14128;48.686;9.738;2023-09-19T03:20:36;14.60;1.40
316;DHT22;14128;48.686;9.738;2023-09-19T03:23:04;14.40;1.40
316;DHT22;14128;48.686;9.738;2023-09-19T03:25:34;14.40;1.40
316;DHT22;14128;48.686;9.738;2023-09-19T03:28:03;14.50;1.40
316;DHT22;14128;48.686;9.738;2023-09-19T03:30:31;14.50;1.40
316;DHT22;14128;48.686;9.738;2023-09-19T03:32:59;14.60;1.40
316;DHT22;14128;48.686;9.738;2023-09-19T03:35:26;14.70;1.40
316;DHT22;14128;48.686;9.738;2023-09-19T03:37:53;14.80;1.40
316;DHT22;14128;48.686;9.738;2023-09-19T03:40:20;14.90;1.40
316;DHT22;14128;48.686;9.738;2023-09-19T03:42:48;15.10;1.40
316;DHT22;14128;48.686;9.738;2023-09-19T03:45:17;15.30;1.40
316;DHT22;14128;48.686;9.738;2023-09-19T03:47:44;15.40;1.40
316;DHT22;14128;48.686;9.738;2023-09-19T03:50:12;15.40;1.40
316;DHT22;14128;48.686;9.738;2023-09-19T03:52:41;15.50;1.40
316;DHT22;14128;48.686;9.738;2023-09-19T03:55:08;15.60;1.40
316;DHT22;14128;48.686;9.738;2023-09-19T03:57:35;15.70;1.40
316;DHT22;14128;48.686;9.738;2023-09-19T04:00:02;15.60;1.40
316;DHT22;14128;48.686;9.738;2023-09-19T04:02:31;15.50;1.40
316;DHT22;14128;48.686;9.738;2023-09-19T04:04:59;15.60;1.40
316;DHT22;14128;48.686;9.738;2023-09-19T04:07:26;15.50;1.40
316;DHT22;14128;48.686;9.738;2023-09-19T04:09:54;15.60;1.40
316;DHT22;14128;48.686;9.738;2023-09-19T04:12:21;15.60;1.40
316;DHT22;14128;48.686;9.738;2023-09-19T04:14:48;15.60;1.40
316;DHT22;14128;48.686;9.738;2023-09-19T04:17:15;15.50;1.40
316;DHT22;14128;48.686;9.738;2023-09-19T04:19:43;15.50;1.40
316;DHT22;14128;48.686;9.738;2023-09-19T04:22:11;15.40;1.40
316;DHT22;14128;48.686;9.738;2023-09-19T04:24:38;15.30;1.40
316;DHT22;14128;48.686;9.738;2023-09-19T04:27:05;15.20;1.40
316;DHT22;14128;48.686;9.738;2023-09-19T04:29:33;15.00;1.40
316;DHT22;14128;48.686;9.738;2023-09-19T04:32:00;14.90;1.40
316;DHT22;14128;48.686;9.738;2023-09-19T04:34:30;14.80;1.40
316;DHT22;14128;48.686;9.738;2023-09-19T04:36:58;14.70;1.40
316;DHT22;14128;48.686;9.738;2023-09-19T04:39:26;14.70;1.40
316;DHT22;14128;48.686;9.738;2023-09-19T04:41:53;14.70;1.40
316;DHT22;14128;48.686;9.738;2023-09-19T04:44:20;14.60;1.40
316;DHT22;14128;48.686;9.738;2023-09-19T04:46:47;14.70;1.40
316;DHT22;14128;48.686;9.738;2023-09-19T04:49:14;14.60;1.40
316;DHT22;14128;48.686;9.738;2023-09-19T04:51:41;14.60;1.40
316;DHT22;14128;48.686;9.738;2023-09-19T04:54:09;14.70;1.40
316;DHT22;14128;48.686;9.738;2023-09-19T04:56:36;14.60;1.40
316;DHT22;14128;48.686;9.738;2023-09-19T04:59:05;14.60;1.40
316;DHT22;14128;48.686;9.738;2023-09-19T05:01:32;14.50;1.40
316;DHT22;14128;48.686;9.738;2023-09-19T05:03:59;14.50;1.40
316;DHT22;14128;48.686;9.738;2023-09-19T05:06:26;14.50;1.40
316;DHT22;14128;48.686;9.738;2023-09-19T05:08:53;14.50;1.40
316;DHT22;14128;48.686;9.738;2023-09-19T05:11:21;14.60;1.40
316;DHT22;14128;48.686;9.738;2023-09-19T05:13:48;14.80;1.40
316;DHT22;14128;48.686;9.738;2023-09-19T05:16:16;14.80;1.40
316;DHT22;14128;48.686;9.738;2023-09-19T05:18:42;14.70;1.40
316;DHT22;14128;48.686;9.738;2023-09-19T05:21:09;14.70;1.40
316;DHT22;14128;48.686;9.738;2023-09-19T05:23:37;14.70;1.40
316;DHT22;14128;48.686;9.738;2023-09-19T05:26:04;14.50;1.40
316;DHT22;14128;48.686;9.738;2023-09-19T05:28:33;14.50;1.40
316;DHT22;14128;48.686;9.738;2023-09-19T05:31:00;14.60;1.40
316;DHT22;14128;48.686;9.738;2023-09-19T05:33:28;14.80;1.40
316;DHT22;14128;48.686;9.738;2023-09-19T05:35:56;14.90;1.40
316;DHT22;14128;48.686;9.738;2023-09-19T05:38:23;15.10;1.40
316;DHT22;14128;48.686;9.738;2023-09-19T05:40:52;15.40;1.40
316;DHT22;14128;48.686;9.738;2023-09-19T05:43:19;15.60;1.40
316;DHT22;14128;48.686;9.738;2023-09-19T05:45:47;15.80;1.40
316;DHT22;14128;48.686;9.738;2023-09-19T05:48:18;15.90;1.40
316;DHT22;14128;48.686;9.738;2023-09-19T05:50:46;16.10;1.40
316;DHT22;14128;48.686;9.738;2023-09-19T05:53:14;16.20;1.40
316;DHT22;14128;48.686;9.738;2023-09-19T05:55:41;16.30;1.40
316;DHT22;14128;48.686;9.738;2023-09-19T05:58:08;16.40;1.40
316;DHT22;14128;48.686;9.738;2023-09-19T06:00:35;16.50;1.40
316;DHT22;14128;48.686;9.738;2023-09-19T06:03:04;16.60;1.40
316;DHT22;14128;48.686;9.738;2023-09-19T06:05:31;16.60;1.40
316;DHT22;14128;48.686;9.738;2023-09-19T06:07:58;16.60;1.40
316;DHT22;14128;48.686;9.738;2023-09-19T06:10:26;16.60;1.40
316;DHT22;14128;48.686;9.738;2023-09-19T06:12:53;16.50;1.40
316;DHT22;14128;48.686;9.738;2023-09-19T06:15:20;16.40;1.40
316;DHT22;14128;48.686;9.738;2023-09-19T06:17:49;16.30;1.40
316;DHT22;14128;48.686;9.738;2023-09-19T06:20:17;16.30;1.40
316;DHT22;14128;48.686;9.738;2023-09-19T06:22:45;16.20;1.40
316;DHT22;14128;48.686;9.738;2023-09-19T06:25:13;16.10;1.40
316;DHT22;14128;48.686;9.738;2023-09-19T06:27:44;16.10;1.40
316;DHT22;14128;48.686;9.738;2023-09-19T06:30:12;16.10;1.40
316;DHT22;14128;48.686;9.738;2023-09-19T06:32:39;16.20;1.40
316;DHT22;14128;48.686;9.738;2023-09-19T06:35:09;16.30;1.40
316;DHT22;14128;48.686;9.738;2023-09-19T06:37:38;16.50;1.40
316;DHT22;14128;48.686;9.738;2023-09-19T06:40:07;16.80;1.40
316;DHT22;14128;48.686;9.738;2023-09-19T06:42:39;17.10;1.40
316;DHT22;14128;48.686;9.738;2023-09-19T06:45:07;17.40;1.40
316;DHT22;14128;48.686;9.738;2023-09-19T06:47:36;17.60;1.40
316;DHT22;14128;48.686;9.738;2023-09-19T06:50:04;17.60;1.40
316;DHT22;14128;48.686;9.738;2023-09-19T06:52:31;17.40;1.40
316;DHT22;14128;48.686;9.738;2023-09-19T06:55:00;17.10;1.40
316;DHT22;14128;48.686;9.738;2023-09-19T06:57:32;16.90;1.40
316;DHT22;14128;48.686;9.738;2023-09-19T06:59:58;16.80;1.40
316;DHT22;14128;48.686;9.738;2023-09-19T07:02:27;16.50;1.40
316;DHT22;14128;48.686;9.738;2023-09-19T07:04:53;15.60;1.40
316;DHT22;14128;48.686;9.738;2023-09-19T07:07:20;15.10;1.40
316;DHT22;14128;48.686;9.738;2023-09-19T07:09:47;14.60;1.40
316;DHT22;14128;48.686;9.738;2023-09-19T07:12:15;14.40;1.40
316;DHT22;14128;48.686;9.738;2023-09-19T07:14:43;14.30;1.40
316;DHT22;14128;48.686;9.738;2023-09-19T07:17:10;14.20;1.40
316;DHT22;14128;48.686;9.738;2023-09-19T07:19:37;14.10;1.40
316;DHT22;14128;48.686;9.738;2023-09-19T07:22:04;14.20;1.40
316;DHT22;14128;48.686;9.738;2023-09-19T07:24:33;14.20;1.40
316;DHT22;14128;48.686;9.738;2023-09-19T07:27:02;14.20;1.40
316;DHT22;14128;48.686;9.738;2023-09-19T07:29:32;14.20;1.40
316;DHT22;14128;48.686;9.738;2023-09-19T07:31:59;14.20;1.40
316;DHT22;14128;48.686;9.738;2023-09-19T07:34:25;14.40;1.40
316;DHT22;14128;48.686;9.738;2023-09-19T07:36:52;14.70;1.40
316;DHT22;14128;48.686;9.738;2023-09-19T07:39:19;14.90;1.40
316;DHT22;14128;48.686;9.738;2023-09-19T07:41:46;15.20;1.40
316;DHT22;14128;48.686;9.738;2023-09-19T07:44:14;15.60;1.40
316;DHT22;14128;48.686;9.738;2023-09-19T07:46:42;15.90;1.40
316;DHT22;14128;48.686;9.738;2023-09-19T07:49:09;16.00;1.40
316;DHT22;14128;48.686;9.738;2023-09-19T07:51:36;16.10;1.40
316;DHT22;14128;48.686;9.738;2023-09-19T07:54:04;16.20;1.40
316;DHT22;14128;48.686;9.738;2023-09-19T07:56:31;16.20;1.40
316;DHT22;14128;48.686;9.738;2023-09-19T07:58:59;15.90;1.40
316;DHT22;14128;48.686;9.738;2023-09-19T08:01:26;15.80;1.40
316;DHT22;14128;48.686;9.738;2023-09-19T08:03:54;15.70;1.40
316;DHT22;14128;48.686;9.738;2023-09-19T08:06:21;15.70;1.40
316;DHT22;14128;48.686;9.738;2023-09-19T08:08:51;15.80;1.40
316;DHT22;14128;48.686;9.738;2023-09-19T08:11:19;16.10;1.40
316;DHT22;14128;48.686;9.738;2023-09-19T08:13:47;15.90;1.40
316;DHT22;14128;48.686;9.738;2023-09-19T08:16:15;15.80;1.40
316;DHT22;14128;48.686;9.738;2023-09-19T08:18:47;15.80;1.40
316;DHT22;14128;48.686;9.738;2023-09-19T08:21:15;15.90;1.40
316;DHT22;14128;48.686;9.738;2023-09-19T08:23:42;16.10;1.40
316;DHT22;14128;48.686;9.738;2023-09-19T08:26:09;16.40;1.40
316;DHT22;14128;48.686;9.738;2023-09-19T08:28:35;16.50;1.40
316;DHT22;14128;48.686;9.738;2023-09-19T08:31:03;16.70;1.40
316;DHT22;14128;48.686;9.738;2023-09-19T08:33:31;16.90;1.40
316;DHT22;14128;48.686;9.738;2023-09-19T08:35:58;17.00;1.40
316;DHT22;14128;48.686;9.738;2023-09-19T08:38:27;17.10;1.40
316;DHT22;14128;48.686;9.738;2023-09-19T08:40:57;17.10;1.40
316;DHT22;14128;48.686;9.738;2023-09-19T08:43:25;17.00;1.40
316;DHT22;14128;48.686;9.738;2023-09-19T08:45:56;17.00;1.40
316;DHT22;14128;48.686;9.738;2023-09-19T08:48:26;17.10;1.40
316;DHT22;14128;48.686;9.738;2023-09-19T08:50:59;17.40;1.40
316;DHT22;14128;48.686;9.738;2023-09-19T08:53:35;17.40;1.40
316;DHT22;14128;48.686;9.738;2023-09-19T08:56:08;17.30;1.40
316;DHT22;14128;48.686;9.738;2023-09-19T08:58:42;17.30;1.40
316;DHT22;14128;48.686;9.738;2023-09-19T09:01:10;17.30;1.40
316;DHT22;14128;48.686;9.738;2023-09-19T09:03:40;17.40;1.40
316;DHT22;14128;48.686;9.738;2023-09-19T09:06:13;17.50;1.40
316;DHT22;14128;48.686;9.738;2023-09-19T09:08:43;17.50;1.40
316;DHT22;14128;48.686;9.738;2023-09-19T09:11:11;17.80;1.40
316;DHT22;14128;48.686;9.738;2023-09-19T09:13:38;18.00;1.40
316;DHT22;14128;48.686;9.738;2023-09-19T09:16:07;18.10;1.40
316;DHT22;14128;48.686;9.738;2023-09-19T09:18:34;18.10;1.40
316;DHT22;14128;48.686;9.738;2023-09-19T09:21:00;17.90;1.40
316;DHT22;14128;48.686;9.738;2023-09-19T09:23:30;17.60;1.40
316;DHT22;14128;48.686;9.738;2023-09-19T09:25:59;17.40;1.40
316;DHT22;14128;48.686;9.738;2023-09-19T09:28:29;17.10;1.40
316;DHT22;14128;48.686;9.738;2023-09-19T09:30:57;16.90;1.40
316;DHT22;14128;48.686;9.738;2023-09-19T09:33:25;16.80;1.40
316;DHT22;14128;48.686;9.738;2023-09-19T09:35:53;16.90;1.40
316;DHT22;14128;48.686;9.738;2023-09-19T09:38:23;17.20;1.40
316;DHT22;14128;48.686;9.738;2023-09-19T09:40:54;17.70;1.40
316;DHT22;14128;48.686;9.738;2023-09-19T09:43:29;18.10;1.40
316;DHT22;14128;48.686;9.738;2023-09-19T09:46:10;18.40;1.40
316;DHT22;14128;48.686;9.738;2023-09-19T09:49:05;18.60;1.40
316;DHT22;14128;48.686;9.738;2023-09-19T09:51:42;18.60;1.40
316;DHT22;14128;48.686;9.738;2023-09-19T09:54:13;18.70;1.40
316;DHT22;14128;48.686;9.738;2023-09-19T09:56:54;18.80;1.40
316;DHT22;14128;48.686;9.738;2023-09-19T09:59:44;19.00;1.40
316;DHT22;14128;48.686;9.738;2023-09-19T10:02:13;19.40;1.40
316;DHT22;14128;48.686;9.738;2023-09-19T10:04:46;19.70;1.40
316;DHT22;14128;48.686;9.738;2023-09-19T10:07:25;19.90;1.40
316;DHT22;14128;48.686;9.738;2023-09-19T10:09:53;20.00;1.40
316;DHT22;14128;48.686;9.738;2023-09-19T10:12:25;20.30;1.40
316;DHT22;14128;48.686;9.738;2023-09-19T10:14:57;20.50;1.40
316;DHT22;14128;48.686;9.738;2023-09-19T10:17:29;20.30;1.40
316;DHT22;14128;48.686;9.738;2023-09-19T10:19:57;20.00;1.40
316;DHT22;14128;48.686;9.738;2023-09-19T10:22:26;19.70;1.40
316;DHT22;14128;48.686;9.738;2023-09-19T10:24:57;19.50;1.40
316;DHT22;14128;48.686;9.738;2023-09-19T10:27:26;19.40;1.40
316;DHT22;14128;48.686;9.738;2023-09-19T10:29:56;19.40;1.40
316;DHT22;14128;48.686;9.738;2023-09-19T10:32:25;19.50;1.40
316;DHT22;14128;48.686;9.738;2023-09-19T10:34:54;19.30;1.40
316;DHT22;14128;48.686;9.738;2023-09-19T10:37:24;19.50;1.40
316;DHT22;14128;48.686;9.738;2023-09-19T10:39:53;19.60;1.40
316;DHT22;14128;48.686;9.738;2023-09-19T10:42:23;19.60;1.40
316;DHT22;14128;48.686;9.738;2023-09-19T10:44:58;19.30;1.40
316;DHT22;14128;48.686;9.738;2023-09-19T10:47:26;19.80;1.40
316;DHT22;14128;48.686;9.738;2023-09-19T10:49:53;20.30;1.40
316;DHT22;14128;48.686;9.738;2023-09-19T10:52:23;20.50;1.40
316;DHT22;14128;48.686;9.738;2023-09-19T10:54:53;20.30;1.40
316;DHT22;14128;48.686;9.738;2023-09-19T10:57:24;20.30;1.40
316;DHT22;14128;48.686;9.738;2023-09-19T11:00:05;20.60;1.40
316;DHT22;14128;48.686;9.738;2023-09-19T11:03:17;21.00;1.40
316;DHT22;14128;48.686;9.738;2023-09-19T11:06:01;20.40;1.40
316;DHT22;14128;48.686;9.738;2023-09-19T11:08:51;19.90;1.40
316;DHT22;14128;48.686;9.738;2023-09-19T11:11:41;19.50;1.40
316;DHT22;14128;48.686;9.738;2023-09-19T11:14:15;19.60;1.40
316;DHT22;14128;48.686;9.738;2023-09-19T11:20:21;19.90;1.40
316;DHT22;14128;48.686;9.738;2023-09-19T11:23:20;20.00;1.40
316;DHT22;14128;48.686;9.738;2023-09-19T11:25:52;20.30;1.40
316;DHT22;14128;48.686;9.738;2023-09-19T11:28:33;20.50;1.40
316;DHT22;14128;48.686;9.738;2023-09-19T11:34:41;20.90;1.40
316;DHT22;14128;48.686;9.738;2023-09-19T11:40:29;21.70;1.40
316;DHT22;14128;48.686;9.738;2023-09-19T11:42:56;22.20;1.40
316;DHT22;14128;48.686;9.738;2023-09-19T11:46:01;22.70;1.40
316;DHT22;14128;48.686;9.738;2023-09-19T11:48:28;23.00;1.40
316;DHT22;14128;48.686;9.738;2023-09-19T11:50:56;22.90;1.40
316;DHT22;14128;48.686;9.738;2023-09-19T11:53:31;22.40;1.40
316;DHT22;14128;48.686;9.738;2023-09-19T11:56:06;22.10;1.40
316;DHT22;14128;48.686;9.738;2023-09-19T11:58:36;21.80;1.40
316;DHT22;14128;48.686;9.738;2023-09-19T12:01:05;21.60;1.40
316;DHT22;14128;48.686;9.738;2023-09-19T12:03:42;21.60;1.40
316;DHT22;14128;48.686;9.738;2023-09-19T12:06:14;21.60;1.40
316;DHT22;14128;48.686;9.738;2023-09-19T12:08:41;21.90;1.40
316;DHT22;14128;48.686;9.738;2023-09-19T12:11:14;21.60;1.40
316;DHT22;14128;48.686;9.738;2023-09-19T12:13:46;21.50;1.40
316;DHT22;14128;48.686;9.738;2023-09-19T12:16:15;21.40;1.40
316;DHT22;14128;48.686;9.738;2023-09-19T12:18:43;21.40;1.40
316;DHT22;14128;48.686;9.738;2023-09-19T12:21:22;21.60;1.40
316;DHT22;14128;48.686;9.738;2023-09-19T12:23:57;21.90;1.40
316;DHT22;14128;48.686;9.738;2023-09-19T12:26:26;22.40;1.40
316;DHT22;14128;48.686;9.738;2023-09-19T12:28:54;22.90;1.40
316;DHT22;14128;48.686;9.738;2023-09-19T12:31:21;23.00;1.40
316;DHT22;14128;48.686;9.738;2023-09-19T12:33:53;23.20;1.40
316;DHT22;14128;48.686;9.738;2023-09-19T12:36:21;23.20;1.40
316;DHT22;14128;48.686;9.738;2023-09-19T12:38:51;23.20;1.40
316;DHT22;14128;48.686;9.738;2023-09-19T12:41:20;23.80;1.40
316;DHT22;14128;48.686;9.738;2023-09-19T12:43:49;24.20;1.40
316;DHT22;14128;48.686;9.738;2023-09-19T12:46:20;24.60;1.40
316;DHT22;14128;48.686;9.738;2023-09-19T12:49:15;24.30;1.40
316;DHT22;14128;48.686;9.738;2023-09-19T12:51:43;23.60;1.40
316;DHT22;14128;48.686;9.738;2023-09-19T12:54:10;23.80;1.40
316;DHT22;14128;48.686;9.738;2023-09-19T12:56:40;23.60;1.40
316;DHT22;14128;48.686;9.738;2023-09-19T12:59:12;23.40;1.40
316;DHT22;14128;48.686;9.738;2023-09-19T13:01:40;22.90;1.40
316;DHT22;14128;48.686;9.738;2023-09-19T13:04:15;22.80;1.40
316;DHT22;14128;48.686;9.738;2023-09-19T13:06:45;23.00;1.40
316;DHT22;14128;48.686;9.738;2023-09-19T13:09:14;23.60;1.40
316;DHT22;14128;48.686;9.738;2023-09-19T13:11:42;24.20;1.40
316;DHT22;14128;48.686;9.738;2023-09-19T13:14:16;24.80;1.40
316;DHT22;14128;48.686;9.738;2023-09-19T13:16:54;25.20;1.40
316;DHT22;14128;48.686;9.738;2023-09-19T13:19:38;25.70;1.40
316;DHT22;14128;48.686;9.738;2023-09-19T13:22:39;25.70;1.40
316;DHT22;14128;48.686;9.738;2023-09-19T13:25:08;26.10;1.40
316;DHT22;14128;48.686;9.738;2023-09-19T13:27:39;26.80;1.40
316;DHT22;14128;48.686;9.738;2023-09-19T13:30:09;27.00;1.40
316;DHT22;14128;48.686;9.738;2023-09-19T13:32:36;27.40;1.40
316;DHT22;14128;48.686;9.738;2023-09-19T13:35:05;27.10;1.40
316;DHT22;14128;48.686;9.738;2023-09-19T13:37:34;26.90;1.40
316;DHT22;14128;48.686;9.738;2023-09-19T13:40:04;27.40;1.40
316;DHT22;14128;48.686;9.738;2023-09-19T13:42:31;26.40;1.40
316;DHT22;14128;48.686;9.738;2023-09-19T13:44:58;25.30;1.40
316;DHT22;14128;48.686;9.738;2023-09-19T13:47:26;25.10;1.40
316;DHT22;14128;48.686;9.738;2023-09-19T13:49:54;26.30;1.40
316;DHT22;14128;48.686;9.738;2023-09-19T13:52:21;25.90;1.40
316;DHT22;14128;48.686;9.738;2023-09-19T13:54:49;25.40;1.40
316;DHT22;14128;48.686;9.738;2023-09-19T13:57:16;24.40;1.40
316;DHT22;14128;48.686;9.738;2023-09-19T13:59:43;24.40;1.40
316;DHT22;14128;48.686;9.738;2023-09-19T14:02:10;24.80;1.40
316;DHT22;14128;48.686;9.738;2023-09-19T14:04:41;25.10;1.40
316;DHT22;14128;48.686;9.738;2023-09-19T14:07:07;26.50;1.40
316;DHT22;14128;48.686;9.738;2023-09-19T14:09:34;28.00;1.40
316;DHT22;14128;48.686;9.738;2023-09-19T14:12:02;26.80;1.40
316;DHT22;14128;48.686;9.738;2023-09-19T14:14:28;27.80;1.40
316;DHT22;14128;48.686;9.738;2023-09-19T14:16:55;28.30;1.40
316;DHT22;14128;48.686;9.738;2023-09-19T14:19:22;28.50;1.40
316;DHT22;14128;48.686;9.738;2023-09-19T14:21:51;29.70;1.40
316;DHT22;14128;48.686;9.738;2023-09-19T14:24:21;29.60;1.40
316;DHT22;14128;48.686;9.738;2023-09-19T14:26:48;30.00;1.40
316;DHT22;14128;48.686;9.738;2023-09-19T14:29:16;30.50;1.40
316;DHT22;14128;48.686;9.738;2023-09-19T14:31:43;31.70;1.40
316;DHT22;14128;48.686;9.738;2023-09-19T14:34:10;31.80;1.40
316;DHT22;14128;48.686;9.738;2023-09-19T14:36:37;31.50;1.40
316;DHT22;14128;48.686;9.738;2023-09-19T14:39:06;31.20;1.40
316;DHT22;14128;48.686;9.738;2023-09-19T14:41:33;31.80;1.40
316;DHT22;14128;48.686;9.738;2023-09-19T14:44:02;31.60;1.40
316;DHT22;14128;48.686;9.738;2023-09-19T14:46:29;30.80;1.40
316;DHT22;14128;48.686;9.738;2023-09-19T14:48:56;30.70;1.40
316;DHT22;14128;48.686;9.738;2023-09-19T14:51:25;31.30;1.40
316;DHT22;14128;48.686;9.738;2023-09-19T14:53:53;31.70;1.40
316;DHT22;14128;48.686;9.738;2023-09-19T14:56:21;30.80;1.40
316;DHT22;14128;48.686;9.738;2023-09-19T14:58:49;29.50;1.40
316;DHT22;14128;48.686;9.738;2023-09-19T15:01:16;29.50;1.40
316;DHT22;14128;48.686;9.738;2023-09-19T15:03:43;30.40;1.40
316;DHT22;14128;48.686;9.738;2023-09-19T15:06:12;30.00;1.40
316;DHT22;14128;48.686;9.738;2023-09-19T15:08:40;29.70;1.40
316;DHT22;14128;48.686;9.738;2023-09-19T15:11:11;31.30;1.40
316;DHT22;14128;48.686;9.738;2023-09-19T15:13:40;30.90;1.40
316;DHT22;14128;48.686;9.738;2023-09-19T15:16:08;30.30;1.40
316;DHT22;14128;48.686;9.738;2023-09-19T15:18:35;31.20;1.40
316;DHT22;14128;48.686;9.738;2023-09-19T15:21:03;31.90;1.40
316;DHT22;14128;48.686;9.738;2023-09-19T15:23:30;31.50;1.40
316;DHT22;14128;48.686;9.738;2023-09-19T15:25:58;30.90;1.40
316;DHT22;14128;48.686;9.738;2023-09-19T15:28:24;30.70;1.40
316;DHT22;14128;48.686;9.738;2023-09-19T15:30:59;31.00;1.40
316;DHT22;14128;48.686;9.738;2023-09-19T15:33:26;30.30;1.40
316;DHT22;14128;48.686;9.738;2023-09-19T15:36:00;30.30;1.40
316;DHT22;14128;48.686;9.738;2023-09-19T15:38:29;30.20;1.40
316;DHT22;14128;48.686;9.738;2023-09-19T15:40:57;29.90;1.40
316;DHT22;14128;48.686;9.738;2023-09-19T15:43:24;29.20;1.40
316;DHT22;14128;48.686;9.738;2023-09-19T15:45:51;28.70;1.40
316;DHT22;14128;48.686;9.738;2023-09-19T15:48:19;29.10;1.40
316;DHT22;14128;48.686;9.738;2023-09-19T15:50:47;28.90;1.40
316;DHT22;14128;48.686;9.738;2023-09-19T15:53:14;29.80;1.40
316;DHT22;14128;48.686;9.738;2023-09-19T15:55:42;30.20;1.40
316;DHT22;14128;48.686;9.738;2023-09-19T15:58:09;31.00;1.40
316;DHT22;14128;48.686;9.738;2023-09-19T16:00:39;30.10;1.40
316;DHT22;14128;48.686;9.738;2023-09-19T16:03:06;29.50;1.40
316;DHT22;14128;48.686;9.738;2023-09-19T16:05:36;29.40;1.40
316;DHT22;14128;48.686;9.738;2023-09-19T16:08:06;29.50;1.40
316;DHT22;14128;48.686;9.738;2023-09-19T16:10:35;29.50;1.40
316;DHT22;14128;48.686;9.738;2023-09-19T16:13:03;29.30;1.40
316;DHT22;14128;48.686;9.738;2023-09-19T16:15:30;29.50;1.40
316;DHT22;14128;48.686;9.738;2023-09-19T16:17:56;29.20;1.40
316;DHT22;14128;48.686;9.738;2023-09-19T16:20:23;28.20;1.40
316;DHT22;14128;48.686;9.738;2023-09-19T16:22:52;28.10;1.40
316;DHT22;14128;48.686;9.738;2023-09-19T16:25:18;28.80;1.40
316;DHT22;14128;48.686;9.738;2023-09-19T16:27:45;28.20;1.40
316;DHT22;14128;48.686;9.738;2023-09-19T16:30:12;28.00;1.40
316;DHT22;14128;48.686;9.738;2023-09-19T16:32:39;26.10;1.40
316;DHT22;14128;48.686;9.738;2023-09-19T16:35:07;24.70;1.40
316;DHT22;14128;48.686;9.738;2023-09-19T16:37:35;23.80;1.40
316;DHT22;14128;48.686;9.738;2023-09-19T16:40:06;23.10;1.40
316;DHT22;14128;48.686;9.738;2023-09-19T16:42:34;22.50;1.40